Terminal Aerodrome Forecast
Issued by NWS Topeka, KS

Home | Current Version | Previous Version | Text Only | Print | Product List | Glossary On
Versions: 1 2 3 4 5 6 7 8 9 10 11 12 13 14 15
000
FTUS43 KTOP 301100
TAFTOP
TAF
KTOP 301128Z 3012/3112 25007KT P6SM SCT100
     FM301700 33013G21KT P6SM SKC
     FM302300 33009KT P6SM SKC
     FM310700 36013KT P6SM SCT015=

USA.gov is the U.S. government's official web portal to all federal, state and local government web resources and services.